Garanhuns, Brazil
Current Conditions -  °F | °C
As of 12:00 PM on Thursday 23 Oct 2014 (Local Time) from SBMO Reporting Station
Broken Clouds Broken Clouds  
Wind Chill: 27°   Ceiling: 8000
Heat Index: 28°   Visibility: 6mi
Dew Point: 20°   Wind: 15mph
Humidity: 65%   Direction: 120°ESE
Pressure: 30"   Gusts: NA
Location:  8.89°S, 36.5°W
Report Text: SBMO 231500Z 12013KT 9999 SCT020 BKN080 27/20 Q1016
Loading
Personal Weather Stations






























Interactive Weather Map
Tropical Storm Tracking
New forecast layout! Learn more

10-Day Weather Forecast

Advertisements
Track Severe Weather on mobile